Time,TemperatureF,DewpointF,PressureIn,WindDirection,WindDirectionDegrees,WindSpeedMPH,WindSpeedGustMPH,Humidity,HourlyPrecipIn,Conditions,Clouds,dailyrainin,SoftwareType,DateUTC
2013-02-05 00:00:00,44.4,38.7,29.29,WSW,244,5.4,7.4,80,0.00,,---,0.00,VWS V14.00,2013-02-05 06:00:00,
2013-02-05 00:05:00,44.6,38.5,29.29,SW,214,6.0,8.2,79,0.00,,---,0.00,VWS V14.00,2013-02-05 06:05:00,
2013-02-05 00:10:00,44.6,38.5,29.29,WSW,252,4.7,12.3,79,0.00,,---,0.00,VWS V14.00,2013-02-05 06:10:00,
2013-02-05 00:15:00,44.6,38.5,29.29,WSW,251,4.0,6.6,79,0.00,,---,0.00,VWS V14.00,2013-02-05 06:15:00,
2013-02-05 00:20:00,44.8,38.7,29.29,West,263,6.0,8.2,79,0.00,,---,0.00,VWS V14.00,2013-02-05 06:20:00,
2013-02-05 00:25:00,44.6,38.5,29.29,WSW,258,5.4,9.1,79,0.00,,---,0.00,VWS V14.00,2013-02-05 06:25:00,
2013-02-05 00:30:00,44.6,38.5,29.29,West,276,5.4,7.4,79,0.00,,---,0.00,VWS V14.00,2013-02-05 06:30:00,
2013-02-05 00:35:00,44.6,38.5,29.29,WSW,255,6.0,10.7,79,0.00,,---,0.00,VWS V14.00,2013-02-05 06:35:00,
2013-02-05 00:40:00,44.6,38.5,29.29,WSW,246,5.4,7.4,79,0.00,,---,0.00,VWS V14.00,2013-02-05 06:40:00,
2013-02-05 00:45:00,44.6,38.5,29.29,WSW,251,5.4,7.4,79,0.00,,---,0.00,VWS V14.00,2013-02-05 06:45:00,
2013-02-05 00:50:00,44.6,38.5,29.29,West,264,4.7,9.9,79,0.00,,---,0.00,VWS V14.00,2013-02-05 06:50:00,
2013-02-05 00:55:00,44.6,38.5,29.29,WSW,243,4.0,8.2,79,0.00,,---,0.00,VWS V14.00,2013-02-05 06:55:00,
2013-02-05 01:00:00,44.6,38.5,29.29,WSW,246,8.1,10.7,79,0.00,,---,0.35,VWS V14.00,2013-02-05 07:00:00,
2013-02-05 01:05:00,44.6,38.8,29.29,WSW,257,3.4,6.6,80,0.00,,---,0.00,VWS V14.00,2013-02-05 07:05:00,
2013-02-05 01:10:00,44.6,38.8,29.29,West,259,0.0,1.0,80,0.00,,---,0.00,VWS V14.00,2013-02-05 07:10:00,
2013-02-05 01:15:00,44.6,38.8,29.29,WSW,248,4.0,5.8,80,0.00,,---,0.00,VWS V14.00,2013-02-05 07:15:00,
2013-02-05 01:20:00,44.4,38.7,29.29,West,264,4.7,6.6,80,0.00,,---,0.00,VWS V14.00,2013-02-05 07:20:00,
2013-02-05 01:25:00,44.4,39.0,29.29,WSW,254,4.0,8.2,81,0.00,,---,0.00,VWS V14.00,2013-02-05 07:25:00,
2013-02-05 01:30:00,44.2,38.8,29.29,WSW,238,4.7,8.2,81,0.00,,---,0.00,VWS V14.00,2013-02-05 07:30:00,
2013-02-05 01:35:00,44.2,38.8,29.29,WSW,254,5.4,7.4,81,0.00,,---,0.00,VWS V14.00,2013-02-05 07:35:00,
2013-02-05 01:40:00,44.2,38.8,29.29,West,279,5.4,8.2,81,0.00,,---,0.00,VWS V14.00,2013-02-05 07:40:00,
2013-02-05 01:45:00,44.2,38.8,29.29,West,268,6.0,8.2,81,0.00,,---,0.00,VWS V14.00,2013-02-05 07:45:00,
2013-02-05 01:50:00,44.2,39.1,29.29,West,274,4.0,6.6,82,0.00,,---,0.00,VWS V14.00,2013-02-05 07:50:00,
2013-02-05 01:55:00,44.2,39.1,29.29,West,278,0.0,1.0,82,0.00,,---,0.00,VWS V14.00,2013-02-05 07:55:00,
2013-02-05 02:00:00,44.2,39.1,29.29,WNW,295,4.0,8.2,82,0.00,,---,0.00,VWS V14.00,2013-02-05 08:00:00,
2013-02-05 02:05:00,44.2,39.1,29.29,WNW,292,4.7,6.6,82,0.00,,---,0.00,VWS V14.00,2013-02-05 08:05:00,
2013-02-05 02:10:00,44.2,39.1,29.29,West,270,4.0,5.8,82,0.00,,---,0.00,VWS V14.00,2013-02-05 08:10:00,
2013-02-05 02:15:00,44.2,39.1,29.29,West,267,4.0,9.1,82,0.00,,---,0.00,VWS V14.00,2013-02-05 08:15:00,
2013-02-05 02:20:00,44.1,38.9,29.29,WNW,293,4.7,6.6,82,0.00,,---,0.00,VWS V14.00,2013-02-05 08:20:00,
2013-02-05 02:25:00,43.9,38.8,29.29,West,268,4.7,6.6,82,0.00,,---,0.00,VWS V14.00,2013-02-05 08:25:00,
2013-02-05 02:30:00,43.7,38.6,29.29,WNW,291,7.4,10.7,82,0.00,,---,0.00,VWS V14.00,2013-02-05 08:30:00,
2013-02-05 02:35:00,43.7,38.6,29.29,WSW,255,3.4,8.2,82,0.00,,---,0.00,VWS V14.00,2013-02-05 08:35:00,
2013-02-05 02:40:00,43.7,38.6,29.29,WNW,283,4.7,6.6,82,0.00,,---,0.00,VWS V14.00,2013-02-05 08:40:00,
2013-02-05 02:45:00,43.5,38.4,29.29,West,280,5.4,8.2,82,0.00,,---,0.00,VWS V14.00,2013-02-05 08:45:00,
2013-02-05 02:50:00,43.5,38.4,29.29,West,278,4.0,5.8,82,0.00,,---,0.00,VWS V14.00,2013-02-05 08:50:00,
2013-02-05 02:55:00,43.3,38.2,29.29,West,272,6.0,8.2,82,0.00,,---,0.00,VWS V14.00,2013-02-05 08:55:00,
2013-02-05 03:00:00,43.3,38.2,29.29,West,273,4.0,5.8,82,0.00,,---,0.00,VWS V14.00,2013-02-05 09:00:00,
2013-02-05 03:05:00,43.3,38.2,29.29,West,281,4.7,6.6,82,0.00,,---,0.00,VWS V14.00,2013-02-05 09:05:00,
2013-02-05 03:10:00,43.2,38.4,29.29,WNW,302,4.7,6.6,83,0.00,,---,0.00,VWS V14.00,2013-02-05 09:10:00,
2013-02-05 03:15:00,43.0,38.2,29.29,WNW,303,4.0,7.4,83,0.00,,---,0.00,VWS V14.00,2013-02-05 09:15:00,
2013-02-05 03:20:00,43.0,38.2,29.29,West,278,5.4,7.4,83,0.00,,---,0.00,VWS V14.00,2013-02-05 09:20:00,
2013-02-05 03:25:00,42.8,38.0,29.29,NW,324,4.0,5.8,83,0.00,,---,0.00,VWS V14.00,2013-02-05 09:25:00,
2013-02-05 03:30:00,42.6,37.8,29.29,WNW,296,5.4,7.4,83,0.00,,---,0.00,VWS V14.00,2013-02-05 09:30:00,
2013-02-05 03:35:00,42.4,38.0,29.29,NW,310,4.0,5.8,84,0.00,,---,0.00,VWS V14.00,2013-02-05 09:35:00,
2013-02-05 03:40:00,42.3,37.8,29.29,WNW,300,0.0,5.0,84,0.00,,---,0.00,VWS V14.00,2013-02-05 09:40:00,
2013-02-05 03:45:00,42.3,37.8,29.29,WNW,284,0.0,6.6,84,0.00,,---,0.00,VWS V14.00,2013-02-05 09:45:00,
2013-02-05 03:50:00,42.1,37.6,29.29,NW,322,3.4,7.4,84,0.00,,---,0.00,VWS V14.00,2013-02-05 09:50:00,
2013-02-05 03:55:00,42.1,37.6,29.29,NNW,339,3.4,5.0,84,0.00,,---,0.00,VWS V14.00,2013-02-05 09:55:00,
2013-02-05 04:00:00,41.9,37.7,29.29,North,3,4.7,7.4,85,0.00,,---,0.00,VWS V14.00,2013-02-05 10:00:00,
2013-02-05 04:05:00,41.9,37.7,29.29,West,271,0.0,1.0,85,0.00,,---,0.00,VWS V14.00,2013-02-05 10:05:00,
2013-02-05 04:10:00,41.7,37.5,29.29,WNW,284,0.0,1.0,85,0.00,,---,0.00,VWS V14.00,2013-02-05 10:10:00,
2013-02-05 04:15:00,41.7,37.5,29.29,North,353,4.0,5.8,85,0.00,,---,0.00,VWS V14.00,2013-02-05 10:15:00,
2013-02-05 04:20:00,41.5,37.4,29.29,North,353,0.0,1.0,85,0.00,,---,0.00,VWS V14.00,2013-02-05 10:20:00,
2013-02-05 04:25:00,41.5,37.4,29.29,North,353,0.0,1.0,85,0.00,,---,0.00,VWS V14.00,2013-02-05 10:25:00,
2013-02-05 04:30:00,41.5,37.4,29.29,North,353,0.0,1.0,85,0.00,,---,0.00,VWS V14.00,2013-02-05 10:30:00,
2013-02-05 04:35:00,41.4,37.2,29.29,North,353,0.0,1.0,85,0.00,,---,0.00,VWS V14.00,2013-02-05 10:35:00,
2013-02-05 04:40:00,41.4,37.2,29.29,North,353,0.0,1.0,85,0.00,,---,0.00,VWS V14.00,2013-02-05 10:40:00,
2013-02-05 04:45:00,41.2,37.3,29.29,North,353,0.0,1.0,86,0.00,,---,0.00,VWS V14.00,2013-02-05 10:45:00,
2013-02-05 04:50:00,41.2,37.3,29.29,North,353,0.0,1.0,86,0.00,,---,0.00,VWS V14.00,2013-02-05 10:50:00,
2013-02-05 04:55:00,41.2,37.3,29.29,North,353,0.0,1.0,86,0.00,,---,0.00,VWS V14.00,2013-02-05 10:55:00,
2013-02-05 05:00:00,41.2,37.3,29.29,North,0,0.0,1.0,86,0.00,,---,0.00,VWS V14.00,2013-02-05 11:00:00,
2013-02-05 05:05:00,41.2,37.6,29.29,North,357,0.0,1.0,87,0.00,,---,0.00,VWS V14.00,2013-02-05 11:05:00,
2013-02-05 05:10:00,41.0,37.4,29.29,North,353,3.4,5.8,87,0.00,,---,0.00,VWS V14.00,2013-02-05 11:10:00,
2013-02-05 05:15:00,41.0,37.4,29.29,North,353,0.0,1.0,87,0.00,,---,0.00,VWS V14.00,2013-02-05 11:15:00,
2013-02-05 05:20:00,41.0,37.4,29.29,North,353,0.0,1.0,87,0.00,,---,0.00,VWS V14.00,2013-02-05 11:20:00,
2013-02-05 05:25:00,41.0,37.4,29.29,North,353,0.0,1.0,87,0.00,,---,0.00,VWS V14.00,2013-02-05 11:25:00,
2013-02-05 05:30:00,41.0,37.4,29.29,North,353,0.0,1.0,87,0.00,,---,0.00,VWS V14.00,2013-02-05 11:30:00,
2013-02-05 05:35:00,41.0,37.4,29.29,North,353,0.0,1.0,87,0.00,,---,0.00,VWS V14.00,2013-02-05 11:35:00,
2013-02-05 05:40:00,41.0,37.4,29.29,North,353,0.0,1.0,87,0.00,,---,0.00,VWS V14.00,2013-02-05 11:40:00,
2013-02-05 05:45:00,41.0,37.4,29.29,North,353,0.0,1.0,87,0.00,,---,0.00,VWS V14.00,2013-02-05 11:45:00,
2013-02-05 05:50:00,41.0,37.4,29.32,North,353,0.0,1.0,87,0.00,,---,0.00,VWS V14.00,2013-02-05 11:50:00,
2013-02-05 05:55:00,40.8,37.3,29.32,North,353,0.0,1.0,87,0.00,,---,0.00,VWS V14.00,2013-02-05 11:55:00,
2013-02-05 06:00:00,40.8,37.5,29.32,North,353,0.0,1.0,88,0.00,,---,0.00,VWS V14.00,2013-02-05 12:00:00,
2013-02-05 06:05:00,40.8,37.5,29.32,North,353,0.0,1.0,88,0.00,,---,0.00,VWS V14.00,2013-02-05 12:05:00,
2013-02-05 06:10:00,40.8,37.5,29.32,North,353,0.0,1.0,88,0.00,,---,0.00,VWS V14.00,2013-02-05 12:10:00,
2013-02-05 06:15:00,40.8,37.5,29.32,North,353,0.0,1.0,88,0.00,,---,0.00,VWS V14.00,2013-02-05 12:15:00,
2013-02-05 06:20:00,40.8,37.5,29.32,North,353,0.0,1.0,88,0.00,,---,0.00,VWS V14.00,2013-02-05 12:20:00,
2013-02-05 06:25:00,40.8,37.5,29.32,North,353,0.0,1.0,88,0.00,,---,0.00,VWS V14.00,2013-02-05 12:25:00,
2013-02-05 06:30:00,40.8,37.5,29.32,North,353,0.0,1.0,88,0.00,,---,0.00,VWS V14.00,2013-02-05 12:30:00,
2013-02-05 06:35:00,40.8,37.5,29.32,North,353,0.0,1.0,88,0.00,,---,0.00,VWS V14.00,2013-02-05 12:35:00,
2013-02-05 06:40:00,40.6,37.4,29.32,North,353,0.0,1.0,88,0.00,,---,0.00,VWS V14.00,2013-02-05 12:40:00,
2013-02-05 06:45:00,40.6,37.4,29.32,North,353,0.0,1.0,88,0.00,,---,0.00,VWS V14.00,2013-02-05 12:45:00,
2013-02-05 06:50:00,40.6,37.4,29.32,North,353,0.0,1.0,88,0.00,,---,0.00,VWS V14.00,2013-02-05 12:50:00,
2013-02-05 06:55:00,40.6,37.4,29.32,North,353,0.0,1.0,88,0.00,,---,0.00,VWS V14.00,2013-02-05 12:55:00,
2013-02-05 07:00:00,40.6,37.4,29.32,North,353,0.0,1.0,88,0.00,,---,0.00,VWS V14.00,2013-02-05 13:00:00,
2013-02-05 07:05:00,40.6,37.4,29.32,North,353,0.0,1.0,88,0.00,,---,0.00,VWS V14.00,2013-02-05 13:05:00,
2013-02-05 07:10:00,40.6,37.4,29.32,NNW,343,0.0,1.0,88,0.00,,---,0.00,VWS V14.00,2013-02-05 13:10:00,
2013-02-05 07:15:00,40.5,37.5,29.32,NNW,343,0.0,1.0,89,0.00,,---,0.00,VWS V14.00,2013-02-05 13:15:00,
2013-02-05 07:20:00,40.5,37.5,29.35,North,0,0.0,1.0,89,0.00,,---,0.00,VWS V14.00,2013-02-05 13:20:00,
2013-02-05 07:25:00,40.5,37.5,29.35,North,350,5.4,7.4,89,0.00,,---,0.00,VWS V14.00,2013-02-05 13:25:00,
2013-02-05 07:30:00,40.3,37.3,29.35,North,357,4.7,6.6,89,0.00,,---,0.00,VWS V14.00,2013-02-05 13:30:00,
2013-02-05 07:35:00,40.3,37.3,29.35,North,0,4.0,5.8,89,0.00,,---,0.00,VWS V14.00,2013-02-05 13:35:00,
2013-02-05 07:40:00,40.3,37.3,29.35,North,353,0.0,1.0,89,0.00,,---,0.00,VWS V14.00,2013-02-05 13:40:00,
2013-02-05 07:45:00,40.5,37.5,29.35,North,0,0.0,1.0,89,0.00,,---,0.00,VWS V14.00,2013-02-05 13:45:00,
2013-02-05 07:50:00,40.5,37.5,29.35,NNW,344,0.0,1.0,89,0.00,,---,0.00,VWS V14.00,2013-02-05 13:50:00,
2013-02-05 07:55:00,40.5,37.5,29.35,NW,323,4.7,6.6,89,0.00,,---,0.00,VWS V14.00,2013-02-05 13:55:00,
2013-02-05 08:01:00,40.3,37.3,29.35,North,357,7.4,9.9,89,0.00,,---,0.00,VWS V14.00,2013-02-05 14:01:00,
2013-02-05 08:06:00,40.1,37.1,29.35,North,4,6.0,8.2,89,0.00,,---,0.00,VWS V14.00,2013-02-05 14:06:00,
2013-02-05 08:11:00,40.1,37.1,29.35,North,353,5.4,7.4,89,0.00,,---,0.00,VWS V14.00,2013-02-05 14:11:00,
2013-02-05 08:16:00,40.3,37.3,29.35,North,349,5.4,7.4,89,0.00,,---,0.00,VWS V14.00,2013-02-05 14:16:00,
2013-02-05 08:21:00,40.3,37.3,29.35,North,353,4.0,5.8,89,0.00,,---,0.00,VWS V14.00,2013-02-05 14:21:00,
2013-02-05 08:26:00,40.3,37.3,29.35,North,10,5.4,7.4,89,0.00,,---,0.00,VWS V14.00,2013-02-05 14:26:00,
2013-02-05 08:31:00,40.3,37.3,29.35,North,2,3.4,5.0,89,0.00,,---,0.00,VWS V14.00,2013-02-05 14:31:00,
2013-02-05 08:36:00,40.3,37.3,29.35,North,2,0.0,5.0,89,0.00,,---,0.00,VWS V14.00,2013-02-05 14:36:00,
2013-02-05 08:41:00,40.5,37.8,29.35,North,2,0.0,1.0,90,0.00,,---,0.00,VWS V14.00,2013-02-05 14:41:00,
2013-02-05 08:46:00,40.5,37.8,29.35,North,2,0.0,1.0,90,0.00,,---,0.00,VWS V14.00,2013-02-05 14:46:00,
2013-02-05 08:51:00,40.5,37.8,29.35,North,2,0.0,1.0,90,0.00,,---,0.00,VWS V14.00,2013-02-05 14:51:00,
2013-02-05 08:56:00,40.5,37.8,29.35,North,357,0.0,1.0,90,0.00,,---,0.00,VWS V14.00,2013-02-05 14:56:00,
2013-02-05 09:01:00,40.6,37.9,29.35,North,357,0.0,1.0,90,0.00,,---,0.00,VWS V14.00,2013-02-05 15:01:00,
2013-02-05 09:06:00,40.8,38.1,29.38,West,271,6.0,8.2,90,0.00,,---,0.00,VWS V14.00,2013-02-05 15:06:00,
2013-02-05 09:11:00,40.8,38.1,29.38,WSW,256,3.4,5.0,90,0.00,,---,0.00,VWS V14.00,2013-02-05 15:11:00,
2013-02-05 09:16:00,40.8,38.1,29.38,SW,225,0.0,1.0,90,0.00,,---,0.00,VWS V14.00,2013-02-05 15:16:00,
2013-02-05 09:21:00,41.0,38.3,29.38,West,274,0.0,1.0,90,0.00,,---,0.00,VWS V14.00,2013-02-05 15:21:00,
2013-02-05 09:26:00,41.2,38.5,29.38,WSW,250,6.7,9.1,90,0.00,,---,0.00,VWS V14.00,2013-02-05 15:26:00,
2013-02-05 09:31:00,41.4,38.7,29.38,West,280,6.0,8.2,90,0.00,,---,0.00,VWS V14.00,2013-02-05 15:31:00,
2013-02-05 09:36:00,41.4,38.7,29.38,SSW,204,5.4,8.2,90,0.00,,---,0.00,VWS V14.00,2013-02-05 15:36:00,
2013-02-05 09:41:00,41.5,38.8,29.38,South,183,3.4,7.4,90,0.00,,---,0.00,VWS V14.00,2013-02-05 15:41:00,
2013-02-05 09:46:00,41.7,39.3,29.38,SW,224,4.7,6.6,91,0.00,,---,0.00,VWS V14.00,2013-02-05 15:46:00,
2013-02-05 09:51:00,41.9,39.5,29.38,West,260,4.0,5.8,91,0.00,,---,0.00,VWS V14.00,2013-02-05 15:51:00,
2013-02-05 09:56:00,42.1,39.7,29.38,West,278,4.7,10.7,91,0.00,,---,0.00,VWS V14.00,2013-02-05 15:56:00,
2013-02-05 10:01:00,41.9,39.5,29.38,West,271,9.4,12.3,91,0.00,,---,0.00,VWS V14.00,2013-02-05 16:01:00,
2013-02-05 10:06:00,41.7,39.3,29.38,WSW,257,4.7,6.6,91,0.00,,---,0.00,VWS V14.00,2013-02-05 16:06:00,
2013-02-05 10:11:00,41.9,39.5,29.38,WNW,286,6.0,9.9,91,0.00,,---,0.00,VWS V14.00,2013-02-05 16:11:00,
2013-02-05 10:16:00,42.1,39.7,29.38,WSW,257,5.4,7.4,91,0.00,,---,0.00,VWS V14.00,2013-02-05 16:16:00,
2013-02-05 10:21:00,42.1,39.7,29.41,WSW,257,0.0,1.0,91,0.00,,---,0.00,VWS V14.00,2013-02-05 16:21:00,
2013-02-05 10:26:00,42.1,39.7,29.41,WNW,292,0.0,1.0,91,0.00,,---,0.00,VWS V14.00,2013-02-05 16:26:00,
2013-02-05 10:31:00,42.3,39.8,29.41,West,270,5.4,7.4,91,0.00,,---,0.00,VWS V14.00,2013-02-05 16:31:00,
2013-02-05 10:36:00,42.3,39.8,29.41,WSW,250,4.7,6.6,91,0.00,,---,0.00,VWS V14.00,2013-02-05 16:36:00,
2013-02-05 10:41:00,42.3,39.8,29.41,WSW,257,6.0,8.2,91,0.00,,---,0.00,VWS V14.00,2013-02-05 16:41:00,
2013-02-05 10:46:00,42.6,40.2,29.41,WSW,239,4.7,6.6,91,0.00,,---,0.00,VWS V14.00,2013-02-05 16:46:00,
2013-02-05 10:51:00,43.0,40.2,29.38,WNW,286,5.4,7.4,90,0.00,,---,0.00,VWS V14.00,2013-02-05 16:51:00,
2013-02-05 10:56:00,43.5,40.8,29.38,West,263,5.4,7.4,90,0.00,,---,0.00,VWS V14.00,2013-02-05 16:56:00,
2013-02-05 11:01:00,43.5,40.8,29.38,West,260,4.0,5.8,90,0.00,,---,0.00,VWS V14.00,2013-02-05 17:01:00,
2013-02-05 11:06:00,43.7,41.0,29.38,South,172,0.0,6.6,90,0.00,,---,0.00,VWS V14.00,2013-02-05 17:06:00,
2013-02-05 11:11:00,43.9,40.8,29.38,SSW,205,4.0,5.8,89,0.00,,---,0.00,VWS V14.00,2013-02-05 17:11:00,
2013-02-05 11:16:00,44.1,41.0,29.38,South,181,4.7,6.6,89,0.00,,---,0.00,VWS V14.00,2013-02-05 17:16:00,
2013-02-05 11:21:00,44.4,41.4,29.38,SSW,193,6.0,8.2,89,0.00,,---,0.00,VWS V14.00,2013-02-05 17:21:00,
2013-02-05 11:26:00,44.6,41.3,29.38,WSW,258,6.0,8.2,88,0.00,,---,0.00,VWS V14.00,2013-02-05 17:26:00,
2013-02-05 11:31:00,44.8,41.5,29.38,West,259,0.0,1.0,88,0.00,,---,0.00,VWS V14.00,2013-02-05 17:31:00,
2013-02-05 11:36:00,45.7,42.0,29.38,SSW,197,5.4,9.9,87,0.00,,---,0.00,VWS V14.00,2013-02-05 17:36:00,
2013-02-05 11:41:00,45.7,41.7,29.38,West,265,4.7,6.6,86,0.00,,---,0.00,VWS V14.00,2013-02-05 17:41:00,
2013-02-05 11:46:00,46.0,41.8,29.38,WSW,249,5.4,8.2,85,0.00,,---,0.00,VWS V14.00,2013-02-05 17:46:00,
2013-02-05 11:51:00,46.2,41.7,29.38,SSW,195,4.0,6.6,84,0.00,,---,0.00,VWS V14.00,2013-02-05 17:51:00,
2013-02-05 11:56:00,47.1,42.2,29.38,South,188,6.7,9.1,83,0.00,,---,0.00,VWS V14.00,2013-02-05 17:56:00,
2013-02-05 12:01:00,47.1,42.2,29.38,South,177,4.7,7.4,83,0.00,,---,0.00,VWS V14.00,2013-02-05 18:01:00,
2013-02-05 12:06:00,47.7,41.8,29.38,South,188,8.1,10.7,80,0.00,,---,0.00,VWS V14.00,2013-02-05 18:06:00,
2013-02-05 12:11:00,48.2,41.7,29.35,South,191,5.4,7.4,78,0.00,,---,0.00,VWS V14.00,2013-02-05 18:11:00,
2013-02-05 12:16:00,49.1,42.2,29.35,SW,219,5.4,7.4,77,0.00,,---,0.00,VWS V14.00,2013-02-05 18:16:00,
2013-02-05 12:21:00,49.8,42.6,29.35,WNW,302,4.0,6.6,76,0.00,,---,0.00,VWS V14.00,2013-02-05 18:21:00,
2013-02-05 12:26:00,50.2,42.6,29.35,SSW,200,0.0,1.0,75,0.00,,---,0.00,VWS V14.00,2013-02-05 18:26:00,
2013-02-05 12:31:00,50.4,42.0,29.35,SW,233,5.4,7.4,73,0.00,,---,0.00,VWS V14.00,2013-02-05 18:31:00,
2013-02-05 12:36:00,50.5,41.1,29.35,South,176,4.7,7.4,70,0.00,,---,0.00,VWS V14.00,2013-02-05 18:36:00,
2013-02-05 12:41:00,51.1,41.3,29.35,South,190,4.7,9.9,69,0.00,,---,0.00,VWS V14.00,2013-02-05 18:41:00,
2013-02-05 12:46:00,51.4,41.2,29.35,WSW,241,8.1,10.7,68,0.00,,---,0.00,VWS V14.00,2013-02-05 18:46:00,
2013-02-05 12:51:00,51.4,40.5,29.35,SSW,203,5.4,9.1,66,0.00,,---,0.00,VWS V14.00,2013-02-05 18:51:00,
2013-02-05 12:56:00,52.2,40.4,29.32,SW,227,8.1,10.7,64,0.00,,---,0.00,VWS V14.00,2013-02-05 18:56:00,
2013-02-05 13:01:00,52.5,40.3,29.32,South,180,4.0,5.8,63,0.00,,---,0.00,VWS V14.00,2013-02-05 19:01:00,
2013-02-05 13:06:00,53.1,40.4,29.32,West,267,8.1,10.7,62,0.00,,---,0.00,VWS V14.00,2013-02-05 19:06:00,
2013-02-05 13:11:00,53.1,39.6,29.32,West,276,9.4,12.3,60,0.00,,---,0.00,VWS V14.00,2013-02-05 19:11:00,
2013-02-05 13:16:00,53.6,39.6,29.32,West,259,10.1,13.1,59,0.00,,---,0.00,VWS V14.00,2013-02-05 19:16:00,
2013-02-05 13:21:00,53.4,38.6,29.32,SW,236,8.7,12.3,57,0.00,,---,0.00,VWS V14.00,2013-02-05 19:21:00,
2013-02-05 13:26:00,54.0,39.5,29.32,West,264,10.1,13.1,58,0.00,,---,0.00,VWS V14.00,2013-02-05 19:26:00,
2013-02-05 13:31:00,54.3,39.0,29.32,WSW,246,4.7,6.6,56,0.00,,---,0.00,VWS V14.00,2013-02-05 19:31:00,
2013-02-05 13:36:00,54.9,39.5,29.32,WSW,237,7.4,9.9,56,0.00,,---,0.00,VWS V14.00,2013-02-05 19:36:00,
2013-02-05 13:41:00,54.9,39.0,29.32,West,275,11.4,14.7,55,0.00,,---,0.00,VWS V14.00,2013-02-05 19:41:00,
2013-02-05 13:46:00,54.7,38.4,29.32,SW,230,8.1,10.7,54,0.00,,---,0.00,VWS V14.00,2013-02-05 19:46:00,
2013-02-05 13:51:00,54.9,39.0,29.32,SW,233,5.4,9.9,55,0.00,,---,0.00,VWS V14.00,2013-02-05 19:51:00,
2013-02-05 13:56:00,55.4,38.1,29.32,West,271,7.4,9.9,52,0.00,,---,0.00,VWS V14.00,2013-02-05 19:56:00,
2013-02-05 14:01:00,55.6,37.2,29.32,West,269,4.7,8.2,50,0.00,,---,0.00,VWS V14.00,2013-02-05 20:01:00,
2013-02-05 14:06:00,56.3,38.4,29.32,West,281,8.1,10.7,51,0.00,,---,0.00,VWS V14.00,2013-02-05 20:06:00,
2013-02-05 14:11:00,56.8,38.4,29.32,WSW,256,8.1,10.7,50,0.00,,---,0.00,VWS V14.00,2013-02-05 20:11:00,
2013-02-05 14:16:00,56.7,37.7,29.32,West,268,4.7,15.5,49,0.00,,---,0.00,VWS V14.00,2013-02-05 20:16:00,
2013-02-05 14:21:00,56.7,37.7,29.32,WSW,239,7.4,9.9,49,0.00,,---,0.00,VWS V14.00,2013-02-05 20:21:00,
2013-02-05 14:26:00,56.7,37.2,29.32,SW,216,8.7,12.3,48,0.00,,---,0.00,VWS V14.00,2013-02-05 20:26:00,
2013-02-05 14:31:00,56.7,37.2,29.32,SW,228,8.7,11.5,48,0.00,,---,0.00,VWS V14.00,2013-02-05 20:31:00,
2013-02-05 14:36:00,56.7,37.2,29.32,SSW,206,11.4,14.7,48,0.00,,---,0.00,VWS V14.00,2013-02-05 20:36:00,
2013-02-05 14:41:00,56.5,37.0,29.32,SSW,205,6.0,12.3,48,0.00,,---,0.00,VWS V14.00,2013-02-05 20:41:00,
2013-02-05 14:46:00,56.5,36.5,29.32,WSW,252,8.1,10.7,47,0.00,,---,0.00,VWS V14.00,2013-02-05 20:46:00,
2013-02-05 14:51:00,56.3,35.8,29.32,West,278,11.4,14.7,46,0.00,,---,0.00,VWS V14.00,2013-02-05 20:51:00,
2013-02-05 14:56:00,56.3,36.3,29.32,WNW,288,6.0,11.5,47,0.00,,---,0.00,VWS V14.00,2013-02-05 20:56:00,
2013-02-05 15:01:00,57.0,37.0,29.32,WSW,256,4.7,6.6,47,0.00,,---,0.00,VWS V14.00,2013-02-05 21:01:00,
2013-02-05 15:06:00,57.2,36.6,29.32,WSW,252,9.4,12.3,46,0.00,,---,0.00,VWS V14.00,2013-02-05 21:06:00,
2013-02-05 15:11:00,57.4,36.2,29.32,SW,219,8.1,10.7,45,0.00,,---,0.00,VWS V14.00,2013-02-05 21:11:00,
2013-02-05 15:16:00,57.4,35.1,29.32,SW,225,8.7,11.5,43,0.00,,---,0.00,VWS V14.00,2013-02-05 21:16:00,
2013-02-05 15:21:00,57.4,34.5,29.32,SSW,209,8.1,10.7,42,0.00,,---,0.00,VWS V14.00,2013-02-05 21:21:00,
2013-02-05 15:26:00,57.6,34.7,29.32,SW,216,7.4,9.9,42,0.00,,---,0.00,VWS V14.00,2013-02-05 21:26:00,
2013-02-05 15:31:00,57.7,34.8,29.32,SSW,209,5.4,8.2,42,0.00,,---,0.00,VWS V14.00,2013-02-05 21:31:00,
2013-02-05 15:36:00,57.9,35.0,29.32,WSW,258,6.0,8.2,42,0.00,,---,0.00,VWS V14.00,2013-02-05 21:36:00,
2013-02-05 15:41:00,57.4,34.5,29.32,WSW,258,8.7,12.3,42,0.00,,---,0.00,VWS V14.00,2013-02-05 21:41:00,
2013-02-05 15:46:00,57.0,34.8,29.32,South,180,9.4,19.9,43,0.00,,---,0.00,VWS V14.00,2013-02-05 21:46:00,
2013-02-05 15:51:00,57.0,35.3,29.32,WSW,251,12.1,15.5,44,0.00,,---,0.00,VWS V14.00,2013-02-05 21:51:00,
2013-02-05 15:56:00,56.8,35.2,29.32,West,271,8.1,10.7,44,0.00,,---,0.00,VWS V14.00,2013-02-05 21:56:00,
2013-02-05 16:01:00,56.8,35.2,29.32,West,267,9.4,12.3,44,0.00,,---,0.00,VWS V14.00,2013-02-05 22:01:00,
2013-02-05 16:06:00,55.8,34.2,29.32,West,259,10.1,13.1,44,0.00,,---,0.00,VWS V14.00,2013-02-05 22:06:00,
2013-02-05 16:11:00,55.4,34.4,29.32,West,268,8.1,12.3,45,0.00,,---,0.00,VWS V14.00,2013-02-05 22:11:00,
2013-02-05 16:16:00,55.2,34.8,29.32,WNW,283,6.0,10.7,46,0.00,,---,0.00,VWS V14.00,2013-02-05 22:16:00,
2013-02-05 16:21:00,55.0,35.2,29.32,West,265,5.4,10.7,47,0.00,,---,0.00,VWS V14.00,2013-02-05 22:21:00,
2013-02-05 16:26:00,54.9,35.0,29.32,WSW,242,10.7,13.9,47,0.00,,---,0.00,VWS V14.00,2013-02-05 22:26:00,
2013-02-05 16:31:00,54.1,34.9,29.32,West,276,9.4,14.7,48,0.00,,---,0.00,VWS V14.00,2013-02-05 22:31:00,
2013-02-05 16:36:00,53.8,34.6,29.32,West,271,8.7,11.5,48,0.00,,---,0.00,VWS V14.00,2013-02-05 22:36:00,
2013-02-05 16:41:00,53.4,34.8,29.32,West,279,4.7,6.6,49,0.00,,---,0.00,VWS V14.00,2013-02-05 22:41:00,
2013-02-05 16:46:00,53.4,35.3,29.32,WNW,283,6.0,8.2,50,0.00,,---,0.00,VWS V14.00,2013-02-05 22:46:00,
2013-02-05 16:51:00,53.2,35.1,29.32,West,279,4.0,6.6,50,0.00,,---,0.00,VWS V14.00,2013-02-05 22:51:00,
2013-02-05 16:56:00,52.9,35.3,29.32,WNW,286,8.1,10.7,51,0.00,,---,0.00,VWS V14.00,2013-02-05 22:56:00,
2013-02-05 17:01:00,52.2,34.6,29.32,West,262,9.4,12.3,51,0.00,,---,0.00,VWS V14.00,2013-02-05 23:01:00,
2013-02-05 17:06:00,51.6,34.6,29.35,West,261,6.0,8.2,52,0.00,,---,0.00,VWS V14.00,2013-02-05 23:06:00,
2013-02-05 17:11:00,51.1,34.6,29.35,West,264,5.4,8.2,53,0.00,,---,0.00,VWS V14.00,2013-02-05 23:11:00,
2013-02-05 17:16:00,50.5,34.5,29.35,WSW,247,4.0,5.8,54,0.00,,---,0.00,VWS V14.00,2013-02-05 23:16:00,
2013-02-05 17:21:00,50.2,34.2,29.32,SW,227,0.0,1.0,54,0.00,,---,0.00,VWS V14.00,2013-02-05 23:21:00,
2013-02-05 17:26:00,49.6,34.2,29.32,West,262,0.0,7.4,55,0.00,,---,0.00,VWS V14.00,2013-02-05 23:26:00,
2013-02-05 17:31:00,49.1,33.7,29.32,West,261,0.0,1.0,55,0.00,,---,0.00,VWS V14.00,2013-02-05 23:31:00,
2013-02-05 17:36:00,48.0,33.5,29.35,West,261,0.0,1.0,57,0.00,,---,0.00,VWS V14.00,2013-02-05 23:36:00,
2013-02-05 17:41:00,47.5,33.0,29.35,West,261,0.0,1.0,57,0.00,,---,0.00,VWS V14.00,2013-02-05 23:41:00,
2013-02-05 17:46:00,46.9,33.4,29.35,WSW,254,0.0,1.0,59,0.00,,---,0.00,VWS V14.00,2013-02-05 23:46:00,
2013-02-05 17:51:00,46.6,33.0,29.35,WSW,254,0.0,1.0,59,0.00,,---,0.00,VWS V14.00,2013-02-05 23:51:00,
2013-02-05 17:56:00,46.4,33.3,29.35,WSW,254,0.0,1.0,60,0.00,,---,0.00,VWS V14.00,2013-02-05 23:56:00,
2013-02-05 18:01:00,45.5,33.2,29.35,WSW,254,0.0,1.0,62,0.00,,---,0.00,VWS V14.00,2013-02-06 00:01:00,
2013-02-05 18:06:00,45.3,33.5,29.35,WSW,250,4.0,5.8,63,0.00,,---,0.00,VWS V14.00,2013-02-06 00:06:00,
2013-02-05 18:11:00,45.0,33.5,29.35,WSW,245,4.7,6.6,64,0.00,,---,0.00,VWS V14.00,2013-02-06 00:11:00,
2013-02-05 18:16:00,44.6,33.6,29.35,WSW,245,4.7,6.6,65,0.00,,---,0.00,VWS V14.00,2013-02-06 00:16:00,
2013-02-05 18:21:00,44.1,33.4,29.35,WSW,245,4.0,5.8,66,0.00,,---,0.00,VWS V14.00,2013-02-06 00:21:00,
2013-02-05 18:26:00,43.7,33.5,29.35,WSW,245,4.0,6.6,67,0.00,,---,0.00,VWS V14.00,2013-02-06 00:26:00,
2013-02-05 18:31:00,43.3,33.5,29.35,WSW,245,4.7,7.4,68,0.00,,---,0.00,VWS V14.00,2013-02-06 00:31:00,
2013-02-05 18:36:00,43.0,33.2,29.35,WSW,240,6.0,8.2,68,0.00,,---,0.00,VWS V14.00,2013-02-06 00:36:00,
2013-02-05 18:41:00,43.0,33.9,29.35,WSW,241,5.4,7.4,70,0.00,,---,0.00,VWS V14.00,2013-02-06 00:41:00,
2013-02-05 18:46:00,42.8,33.7,29.35,WSW,237,4.7,6.6,70,0.00,,---,0.00,VWS V14.00,2013-02-06 00:46:00,
2013-02-05 18:51:00,43.0,34.2,29.35,WSW,237,4.7,6.6,71,0.00,,---,0.00,VWS V14.00,2013-02-06 00:51:00,
2013-02-05 18:56:00,43.3,34.9,29.35,WSW,244,4.0,6.6,72,0.00,,---,0.00,VWS V14.00,2013-02-06 00:56:00,
2013-02-05 19:01:00,43.0,34.6,29.35,WSW,244,4.0,5.8,72,0.00,,---,0.00,VWS V14.00,2013-02-06 01:01:00,
2013-02-05 19:06:00,43.2,34.8,29.35,WSW,247,0.0,5.8,72,0.00,,---,0.00,VWS V14.00,2013-02-06 01:06:00,
2013-02-05 19:11:00,42.8,34.4,29.35,WSW,247,4.0,5.8,72,0.00,,---,0.00,VWS V14.00,2013-02-06 01:11:00,
2013-02-05 19:16:00,42.4,34.4,29.35,WSW,247,3.4,5.8,73,0.00,,---,0.00,VWS V14.00,2013-02-06 01:16:00,
2013-02-05 19:21:00,42.3,34.2,29.38,WSW,247,3.4,5.8,73,0.00,,---,0.00,VWS V14.00,2013-02-06 01:21:00,
2013-02-05 19:26:00,42.1,34.1,29.38,WSW,247,3.4,5.0,73,0.00,,---,0.00,VWS V14.00,2013-02-06 01:26:00,
2013-02-05 19:31:00,41.7,33.7,29.38,WSW,247,0.0,5.8,73,0.00,,---,0.00,VWS V14.00,2013-02-06 01:31:00,
2013-02-05 19:36:00,41.7,33.7,29.38,WSW,247,3.4,5.0,73,0.00,,---,0.00,VWS V14.00,2013-02-06 01:36:00,
2013-02-05 19:41:00,41.5,33.9,29.38,WSW,247,0.0,1.0,74,0.00,,---,0.00,VWS V14.00,2013-02-06 01:41:00,
2013-02-05 19:46:00,41.5,33.9,29.38,WSW,250,4.7,6.6,74,0.00,,---,0.00,VWS V14.00,2013-02-06 01:46:00,
2013-02-05 19:51:00,41.5,34.2,29.38,WSW,250,4.0,5.8,75,0.00,,---,0.00,VWS V14.00,2013-02-06 01:51:00,
2013-02-05 19:56:00,41.9,34.6,29.38,WSW,250,3.4,5.0,75,0.00,,---,0.00,VWS V14.00,2013-02-06 01:56:00,
2013-02-05 20:01:00,41.7,34.7,29.38,WSW,250,3.4,5.0,76,0.00,,---,0.00,VWS V14.00,2013-02-06 02:01:00,
2013-02-05 20:06:00,41.7,34.7,29.38,WSW,252,4.0,5.8,76,0.00,,---,0.00,VWS V14.00,2013-02-06 02:06:00,
2013-02-05 20:11:00,41.2,34.2,29.38,WSW,252,4.0,5.8,76,0.00,,---,0.00,VWS V14.00,2013-02-06 02:11:00,
2013-02-05 20:16:00,41.4,34.7,29.38,WSW,252,3.4,5.8,77,0.00,,---,0.00,VWS V14.00,2013-02-06 02:16:00,
2013-02-05 20:21:00,41.4,34.7,29.38,WSW,254,4.0,5.8,77,0.00,,---,0.00,VWS V14.00,2013-02-06 02:21:00,
2013-02-05 20:26:00,41.2,34.5,29.38,WSW,254,4.0,5.8,77,0.00,,---,0.00,VWS V14.00,2013-02-06 02:26:00,
2013-02-05 20:31:00,41.4,35.0,29.38,WSW,254,4.0,5.8,78,0.00,,---,0.00,VWS V14.00,2013-02-06 02:31:00,
2013-02-05 20:36:00,41.2,34.8,29.38,WSW,254,3.4,5.8,78,0.00,,---,0.00,VWS V14.00,2013-02-06 02:36:00,
2013-02-05 20:41:00,41.0,34.7,29.38,WSW,254,3.4,5.8,78,0.00,,---,0.00,VWS V14.00,2013-02-06 02:41:00,
2013-02-05 20:46:00,40.6,34.3,29.38,WSW,254,4.0,5.8,78,0.00,,---,0.00,VWS V14.00,2013-02-06 02:46:00,
2013-02-05 20:51:00,40.5,34.2,29.38,WSW,254,4.0,5.8,78,0.00,,---,0.00,VWS V14.00,2013-02-06 02:51:00,
2013-02-05 20:56:00,40.3,34.0,29.38,WSW,254,3.4,5.8,78,0.00,,---,0.00,VWS V14.00,2013-02-06 02:56:00,
2013-02-05 21:01:00,39.7,33.5,29.38,WSW,254,0.0,5.0,78,0.00,,---,0.00,VWS V14.00,2013-02-06 03:01:00,
2013-02-05 21:06:00,39.4,33.1,29.41,West,264,4.7,6.6,78,0.00,,---,0.00,VWS V14.00,2013-02-06 03:06:00,
2013-02-05 21:11:00,39.4,33.4,29.41,WSW,257,4.0,5.8,79,0.00,,---,0.00,VWS V14.00,2013-02-06 03:11:00,
2013-02-05 21:16:00,39.4,33.4,29.41,WSW,257,4.0,5.8,79,0.00,,---,0.00,VWS V14.00,2013-02-06 03:16:00,
2013-02-05 21:21:00,39.4,33.4,29.41,WSW,257,4.0,5.8,79,0.00,,---,0.00,VWS V14.00,2013-02-06 03:21:00,
2013-02-05 21:26:00,39.2,33.6,29.41,West,265,0.0,6.6,80,0.00,,---,0.00,VWS V14.00,2013-02-06 03:26:00,
2013-02-05 21:31:00,39.6,33.9,29.41,West,265,0.0,1.0,80,0.00,,---,0.00,VWS V14.00,2013-02-06 03:31:00,
2013-02-05 21:36:00,39.7,34.1,29.41,West,261,0.0,1.0,80,0.00,,---,0.00,VWS V14.00,2013-02-06 03:36:00,
2013-02-05 21:41:00,39.4,33.7,29.41,West,261,0.0,1.0,80,0.00,,---,0.00,VWS V14.00,2013-02-06 03:41:00,
2013-02-05 21:46:00,39.2,33.6,29.41,West,261,0.0,1.0,80,0.00,,---,0.00,VWS V14.00,2013-02-06 03:46:00,
2013-02-05 21:51:00,39.0,33.7,29.41,West,261,0.0,1.0,81,0.00,,---,0.00,VWS V14.00,2013-02-06 03:51:00,
2013-02-05 21:56:00,39.0,33.7,29.41,West,261,0.0,1.0,81,0.00,,---,0.00,VWS V14.00,2013-02-06 03:56:00,
2013-02-05 22:01:00,38.8,33.5,29.41,West,261,0.0,1.0,81,0.00,,---,0.00,VWS V14.00,2013-02-06 04:01:00,
2013-02-05 22:06:00,38.7,33.7,29.41,West,261,0.0,1.0,82,0.00,,---,0.00,VWS V14.00,2013-02-06 04:06:00,
2013-02-05 22:11:00,38.5,33.5,29.41,West,261,0.0,1.0,82,0.00,,---,0.00,VWS V14.00,2013-02-06 04:11:00,
2013-02-05 22:16:00,38.8,33.8,29.41,West,261,0.0,1.0,82,0.00,,---,0.00,VWS V14.00,2013-02-06 04:16:00,
2013-02-05 22:21:00,39.0,34.3,29.41,West,261,0.0,1.0,83,0.00,,---,0.00,VWS V14.00,2013-02-06 04:21:00,
2013-02-05 22:26:00,39.2,34.5,29.41,NW,314,4.0,5.8,83,0.00,,---,0.00,VWS V14.00,2013-02-06 04:26:00,
2013-02-05 22:31:00,38.8,34.4,29.41,NW,323,4.0,5.8,84,0.00,,---,0.00,VWS V14.00,2013-02-06 04:31:00,
2013-02-05 22:36:00,38.8,34.7,29.41,WNW,299,5.4,7.4,85,0.00,,---,0.00,VWS V14.00,2013-02-06 04:36:00,
2013-02-05 22:41:00,38.8,34.7,29.41,NNW,338,4.7,6.6,85,0.00,,---,0.00,VWS V14.00,2013-02-06 04:41:00,
2013-02-05 22:46:00,39.2,35.1,29.41,NNW,342,4.0,6.6,85,0.00,,---,0.00,VWS V14.00,2013-02-06 04:46:00,
2013-02-05 22:51:00,39.2,35.1,29.41,NNW,345,4.7,6.6,85,0.00,,---,0.00,VWS V14.00,2013-02-06 04:51:00,
2013-02-05 22:56:00,39.7,35.9,29.41,NNW,348,5.4,7.4,86,0.00,,---,0.00,VWS V14.00,2013-02-06 04:56:00,
2013-02-05 23:00:00,39.7,35.9,29.41,North,353,4.0,8.2,86,0.00,,---,0.00,VWS V14.00,2013-02-06 05:00:00,
2013-02-05 23:05:00,39.7,35.9,29.44,North,1,3.4,6.6,86,0.00,,---,0.00,VWS V14.00,2013-02-06 05:05:00,
2013-02-05 23:10:00,39.7,35.9,29.44,North,0,4.0,7.4,86,0.00,,---,0.00,VWS V14.00,2013-02-06 05:10:00,
2013-02-05 23:15:00,39.6,35.7,29.44,North,1,0.0,5.0,86,0.00,,---,0.00,VWS V14.00,2013-02-06 05:15:00,
2013-02-05 23:20:00,38.7,34.8,29.44,North,0,0.0,1.0,86,0.00,,---,0.00,VWS V14.00,2013-02-06 05:20:00,
2013-02-05 23:25:00,38.3,34.2,29.44,North,0,0.0,1.0,85,0.00,,---,0.00,VWS V14.00,2013-02-06 05:25:00,
2013-02-05 23:30:00,37.8,33.7,29.44,North,0,0.0,1.0,85,0.00,,---,0.00,VWS V14.00,2013-02-06 05:30:00,
2013-02-05 23:35:00,37.2,33.1,29.44,North,0,4.7,6.6,85,0.00,,---,0.00,VWS V14.00,2013-02-06 05:35:00,
2013-02-05 23:40:00,36.7,32.6,29.44,North,0,4.0,5.8,85,0.00,,---,0.00,VWS V14.00,2013-02-06 05:40:00,
2013-02-05 23:45:00,36.3,32.2,29.44,North,0,0.0,1.0,85,0.00,,---,0.00,VWS V14.00,2013-02-06 05:45:00,
2013-02-05 23:50:00,36.1,32.1,29.44,North,0,0.0,1.0,85,0.00,,---,0.00,VWS V14.00,2013-02-06 05:50:00,
2013-02-05 23:55:00,36.1,32.1,29.44,North,0,0.0,1.0,85,0.00,,---,0.00,VWS V14.00,2013-02-06 05:55:00,